Time;durP1;ratioP1;P1;durP2;ratioP2;P2;SDS_P1;SDS_P2;PMS_P1;PMS_P2;Temp;Humidity;BMP_temperature;BMP_pressure;BME280_temperature;BME280_humidity;BME280_pressure;Samples;Min_cycle;Max_cycle;Signal;HPM_P1;HPM_P2
2021/04/18 00:01:39;;;;;;;9.25;3.47;;;7.60;72.10;;;;;;5002112;28;20080;-70
2021/04/18 00:04:06;;;;;;;9.25;3.70;;;7.50;72.40;;;;;;5004183;28;20486;-69
2021/04/18 00:06:34;;;;;;;7.53;3.70;;;7.50;72.60;;;;;;5001411;28;20513;-69
2021/04/18 00:08:59;;;;;;;9.70;3.60;;;7.50;71.70;;;;;;5002988;28;20041;-69
2021/04/18 00:11:25;;;;;;;7.95;3.33;;;7.50;72.50;;;;;;5001791;28;20025;-69
2021/04/18 00:13:51;;;;;;;7.95;3.78;;;7.60;72.00;;;;;;5002887;28;20026;-70
2021/04/18 00:16:18;;;;;;;10.40;3.72;;;7.50;71.40;;;;;;5003084;28;20123;-70
2021/04/18 00:18:43;;;;;;;12.70;3.92;;;7.40;71.10;;;;;;5001310;28;20025;-69
2021/04/18 00:21:09;;;;;;;8.13;3.50;;;7.50;71.30;;;;;;5001309;28;20049;-69
2021/04/18 00:23:35;;;;;;;8.40;3.78;;;7.50;70.70;;;;;;5001616;28;20117;-69
2021/04/18 00:26:00;;;;;;;10.85;3.95;;;7.40;71.40;;;;;;5004048;28;20037;-70
2021/04/18 00:28:26;;;;;;;9.82;3.38;;;7.40;72.20;;;;;;5000797;28;20152;-70
2021/04/18 00:30:52;;;;;;;9.82;3.90;;;7.30;72.30;;;;;;5005120;28;20077;-70
2021/04/18 00:33:18;;;;;;;9.70;3.63;;;7.20;72.10;;;;;;5002423;28;20022;-70
2021/04/18 00:35:44;;;;;;;8.35;4.18;;;7.20;72.20;;;;;;5006493;28;20022;-69
2021/04/18 00:38:09;;;;;;;7.95;3.75;;;7.20;73.50;;;;;;5003506;28;20038;-70
2021/04/18 00:40:37;;;;;;;6.50;3.70;;;7.10;73.80;;;;;;5005493;28;20029;-68
2021/04/18 00:43:04;;;;;;;9.18;4.40;;;7.10;73.80;;;;;;5006856;28;20049;-69
2021/04/18 00:45:30;;;;;;;7.10;4.15;;;7.10;74.60;;;;;;4988424;28;20033;-70
2021/04/18 00:47:56;;;;;;;8.95;4.38;;;7.10;74.90;;;;;;5006205;28;20414;-70
2021/04/18 00:50:28;;;;;;;9.18;4.15;;;7.10;74.90;;;;;;4987589;28;20030;-70
2021/04/18 00:52:54;;;;;;;8.40;4.10;;;7.10;75.00;;;;;;5005422;28;20575;-69
2021/04/18 00:55:23;;;;;;;7.50;4.05;;;7.10;74.60;;;;;;5003257;28;20022;-70
2021/04/18 00:57:49;;;;;;;10.43;4.18;;;7.10;75.20;;;;;;5006619;28;20025;-70
2021/04/18 01:00:15;;;;;;;10.93;4.20;;;7.20;75.30;;;;;;5003430;28;20608;-69
2021/04/18 01:02:41;;;;;;;8.57;4.20;;;7.10;75.00;;;;;;5006890;28;20088;-70
2021/04/18 01:05:07;;;;;;;12.98;4.75;;;7.20;75.70;;;;;;5007554;28;20030;-69
2021/04/18 01:07:34;;;;;;;11.95;4.72;;;7.20;75.70;;;;;;5008502;28;20390;-70
2021/04/18 01:10:00;;;;;;;10.85;4.38;;;7.20;76.20;;;;;;5009340;28;20022;-70
2021/04/18 01:12:26;;;;;;;11.60;4.32;;;7.20;75.90;;;;;;4994463;28;20030;-69
2021/04/18 01:14:52;;;;;;;9.10;4.20;;;7.20;76.20;;;;;;5007084;28;20029;-70
2021/04/18 01:17:17;;;;;;;8.88;4.28;;;7.30;76.50;;;;;;5006658;28;20030;-69
2021/04/18 01:19:43;;;;;;;9.40;3.67;;;7.30;76.50;;;;;;5005864;28;20022;-70
2021/04/18 01:22:08;;;;;;;9.43;4.40;;;7.30;76.20;;;;;;5005567;28;20494;-70
2021/04/18 01:24:34;;;;;;;10.38;4.47;;;7.30;76.40;;;;;;5004495;28;20045;-70
2021/04/18 01:27:03;;;;;;;6.93;4.03;;;7.20;76.70;;;;;;5000485;28;20569;-70
2021/04/18 01:29:28;;;;;;;8.63;4.30;;;7.20;77.10;;;;;;5007995;28;20065;-70
2021/04/18 01:31:54;;;;;;;11.20;4.30;;;7.20;76.60;;;;;;5008471;28;20049;-69
2021/04/18 01:34:20;;;;;;;11.68;4.45;;;7.20;77.00;;;;;;5007305;28;20049;-70
2021/04/18 01:36:46;;;;;;;9.38;4.10;;;7.20;77.20;;;;;;5007329;28;20098;-70
2021/04/18 01:39:15;;;;;;;12.18;5.03;;;7.20;77.30;;;;;;5003875;28;20087;-69
2021/04/18 01:41:43;;;;;;;7.57;4.28;;;7.20;77.80;;;;;;5006331;28;20034;-70
2021/04/18 01:44:12;;;;;;;7.70;4.13;;;7.20;77.50;;;;;;5007833;28;20433;-70
2021/04/18 01:46:42;;;;;;;10.52;4.88;;;7.20;76.50;;;;;;5007910;28;20030;-70
2021/04/18 01:49:08;;;;;;;7.30;4.28;;;7.20;78.00;;;;;;5006669;28;20029;-70
2021/04/18 01:51:34;;;;;;;9.02;4.22;;;7.20;78.20;;;;;;5004136;28;20434;-69
2021/04/18 01:54:00;;;;;;;10.57;3.88;;;7.20;78.40;;;;;;5009091;28;20022;-70
2021/04/18 01:56:26;;;;;;;11.70;4.32;;;7.20;78.90;;;;;;5007456;28;20109;-70
2021/04/18 01:58:52;;;;;;;7.00;4.20;;;7.20;78.90;;;;;;5004745;28;20168;-70
2021/04/18 02:01:17;;;;;;;10.95;4.65;;;7.10;78.50;;;;;;5006036;28;20033;-70
2021/04/18 02:03:43;;;;;;;8.93;4.60;;;7.10;77.70;;;;;;5005836;28;20574;-69
2021/04/18 02:06:09;;;;;;;11.68;4.85;;;7.10;79.00;;;;;;5004894;28;20046;-69
2021/04/18 02:08:35;;;;;;;10.15;4.93;;;7.10;79.60;;;;;;5006053;28;20074;-70
2021/04/18 02:11:00;;;;;;;10.80;5.07;;;7.00;79.20;;;;;;5003292;28;20060;-70
2021/04/18 02:13:26;;;;;;;9.35;4.32;;;7.10;79.40;;;;;;5008490;28;20416;-70
2021/04/18 02:15:52;;;;;;;9.75;4.00;;;7.00;78.60;;;;;;5004890;28;20026;-70
2021/04/18 02:18:17;;;;;;;10.70;4.53;;;6.90;78.40;;;;;;5005833;28;20034;-69
2021/04/18 02:20:43;;;;;;;12.32;4.57;;;6.90;78.70;;;;;;5006398;28;20087;-70
2021/04/18 02:23:08;;;;;;;11.73;4.80;;;6.80;79.60;;;;;;5002117;28;20030;-69
2021/04/18 02:25:34;;;;;;;7.47;4.65;;;6.80;79.40;;;;;;5008147;28;20091;-69
2021/04/18 02:27:59;;;;;;;10.95;4.97;;;6.70;79.50;;;;;;5006587;28;20045;-70
2021/04/18 02:30:25;;;;;;;8.73;4.55;;;6.70;80.00;;;;;;5006417;28;20569;-69
2021/04/18 02:32:51;;;;;;;14.88;4.75;;;6.60;80.30;;;;;;5003985;28;20033;-69
2021/04/18 02:35:17;;;;;;;11.50;4.72;;;6.60;80.50;;;;;;5005474;28;20045;-69
2021/04/18 02:37:45;;;;;;;13.10;4.93;;;6.50;80.50;;;;;;5006623;28;20111;-70
2021/04/18 02:40:11;;;;;;;12.32;4.75;;;6.50;81.10;;;;;;5005253;28;20164;-70
2021/04/18 02:42:38;;;;;;;10.48;4.63;;;6.40;81.00;;;;;;5006386;28;20116;-68
2021/04/18 02:45:04;;;;;;;10.13;4.80;;;6.30;81.10;;;;;;5006951;28;20387;-69
2021/04/18 02:47:30;;;;;;;13.25;5.10;;;6.30;81.70;;;;;;5005742;28;20374;-69
2021/04/18 02:49:55;;;;;;;9.98;4.80;;;6.20;82.10;;;;;;5005956;28;20050;-69
2021/04/18 02:52:21;;;;;;;11.18;4.45;;;6.10;83.00;;;;;;5006000;28;20025;-69
2021/04/18 02:54:46;;;;;;;14.77;5.35;;;6.10;82.80;;;;;;5006393;28;20034;-68
2021/04/18 02:57:12;;;;;;;13.90;5.43;;;6.10;82.80;;;;;;5007022;28;20513;-69
2021/04/18 02:59:38;;;;;;;10.00;5.68;;;6.10;83.20;;;;;;5004905;28;20053;-69
2021/04/18 03:02:03;;;;;;;13.27;5.15;;;6.10;84.00;;;;;;5006087;28;20039;-70
2021/04/18 03:04:29;;;;;;;18.52;5.60;;;6.10;84.00;;;;;;5001150;28;20040;-70
2021/04/18 03:06:54;;;;;;;13.90;5.43;;;6.10;83.70;;;;;;5006207;28;20060;-70
2021/04/18 03:09:20;;;;;;;10.10;4.80;;;6.20;83.70;;;;;;5002682;28;20923;-70
2021/04/18 03:11:46;;;;;;;11.52;5.35;;;6.20;83.70;;;;;;5005799;28;20022;-70
2021/04/18 03:14:11;;;;;;;13.70;5.05;;;6.30;83.40;;;;;;5005660;28;20033;-69
2021/04/18 03:16:37;;;;;;;12.25;5.53;;;6.30;83.80;;;;;;5007207;28;20513;-70
2021/04/18 03:19:03;;;;;;;13.05;5.13;;;6.30;83.60;;;;;;5005182;28;20034;-70
2021/04/18 03:21:28;;;;;;;12.32;5.18;;;6.30;83.30;;;;;;5003263;28;20441;-70
2021/04/18 03:23:54;;;;;;;11.45;5.28;;;6.20;82.60;;;;;;5005623;28;20372;-70
2021/04/18 03:26:19;;;;;;;9.90;5.55;;;6.20;83.30;;;;;;5005242;28;20034;-69
2021/04/18 03:28:45;;;;;;;12.43;4.97;;;6.10;84.00;;;;;;5006255;28;20083;-68
2021/04/18 03:31:11;;;;;;;12.20;5.25;;;6.00;83.60;;;;;;5005241;28;20022;-70
2021/04/18 03:33:37;;;;;;;11.60;5.43;;;5.90;83.70;;;;;;5006295;28;20018;-69
2021/04/18 03:36:04;;;;;;;10.75;5.22;;;5.80;83.90;;;;;;5004656;28;20518;-70
2021/04/18 03:38:30;;;;;;;13.65;5.90;;;5.70;83.90;;;;;;5003124;28;20778;-69
2021/04/18 03:40:56;;;;;;;16.60;5.88;;;5.60;84.50;;;;;;5005943;28;20108;-69
2021/04/18 03:43:21;;;;;;;10.23;5.47;;;5.50;84.70;;;;;;5005312;28;20033;-70
2021/04/18 03:45:47;;;;;;;15.73;5.90;;;5.40;85.10;;;;;;5003295;28;20380;-70
2021/04/18 03:48:13;;;;;;;13.13;6.07;;;5.20;84.60;;;;;;5001597;28;20092;-70
2021/04/18 03:50:38;;;;;;;14.40;6.18;;;5.10;85.30;;;;;;5004483;28;20454;-70
2021/04/18 03:53:04;;;;;;;13.85;6.40;;;5.10;86.20;;;;;;5002939;28;20030;-70
2021/04/18 03:55:30;;;;;;;15.43;6.47;;;5.00;86.20;;;;;;5006010;28;20064;-69
2021/04/18 03:57:55;;;;;;;15.27;6.82;;;4.90;86.60;;;;;;5005347;28;20038;-69
2021/04/18 04:00:21;;;;;;;13.32;6.40;;;4.90;86.80;;;;;;4989989;28;20025;-70
2021/04/18 04:02:47;;;;;;;14.55;6.45;;;4.80;87.10;;;;;;5004993;28;20041;-70
2021/04/18 04:05:13;;;;;;;15.32;6.63;;;4.70;87.10;;;;;;5004358;28;20037;-70
2021/04/18 04:07:39;;;;;;;12.15;6.13;;;4.70;87.50;;;;;;5002250;28;20088;-70
2021/04/18 04:10:05;;;;;;;16.75;7.05;;;4.60;87.60;;;;;;5007447;28;20034;-70
2021/04/18 04:12:32;;;;;;;13.88;6.30;;;4.60;87.70;;;;;;5009723;28;20038;-70
2021/04/18 04:14:57;;;;;;;12.57;7.20;;;4.50;87.80;;;;;;5008874;28;20505;-70
2021/04/18 04:17:23;;;;;;;14.70;7.25;;;4.50;87.60;;;;;;4991803;28;20038;-69
2021/04/18 04:19:49;;;;;;;17.20;7.10;;;4.40;87.70;;;;;;5005615;28;20597;-69
2021/04/18 04:22:14;;;;;;;13.07;7.28;;;4.40;87.50;;;;;;5006737;28;20034;-70
2021/04/18 04:24:40;;;;;;;17.98;6.78;;;4.30;87.80;;;;;;5009309;28;20033;-70
2021/04/18 04:27:06;;;;;;;13.05;6.90;;;4.30;87.60;;;;;;5010617;28;20026;-70
2021/04/18 04:29:31;;;;;;;11.90;6.40;;;4.20;87.70;;;;;;5008358;28;20104;-70
2021/04/18 04:31:57;;;;;;;13.68;6.60;;;4.20;87.90;;;;;;5010042;28;20509;-69
2021/04/18 04:34:22;;;;;;;12.93;6.90;;;4.20;88.20;;;;;;5006634;28;20117;-70
2021/04/18 04:36:48;;;;;;;14.55;6.80;;;4.20;88.20;;;;;;5005257;28;20075;-70
2021/04/18 04:39:14;;;;;;;15.02;7.15;;;4.20;88.30;;;;;;5003799;28;20034;-71
2021/04/18 04:41:40;;;;;;;16.25;6.80;;;4.30;88.60;;;;;;5007817;28;20481;-70
2021/04/18 04:44:05;;;;;;;13.73;6.55;;;4.30;88.40;;;;;;5001701;28;20034;-70
2021/04/18 04:46:31;;;;;;;14.10;6.20;;;4.30;88.20;;;;;;5008855;28;20022;-70
2021/04/18 04:48:57;;;;;;;17.52;6.30;;;4.40;88.50;;;;;;5001573;28;20038;-70
2021/04/18 04:51:22;;;;;;;13.45;6.35;;;4.50;88.40;;;;;;4968989;28;20088;-68
2021/04/18 04:53:48;;;;;;;14.77;5.72;;;4.60;88.00;;;;;;4997543;28;20479;-70
2021/04/18 04:56:13;;;;;;;13.18;5.82;;;4.70;87.80;;;;;;5008850;28;20038;-69
2021/04/18 04:58:39;;;;;;;17.27;5.80;;;4.70;87.50;;;;;;5001533;28;20022;-71
2021/04/18 05:01:05;;;;;;;14.20;5.07;;;4.70;87.40;;;;;;5006057;28;20036;-70
2021/04/18 05:03:30;;;;;;;16.73;4.90;;;4.70;87.10;;;;;;5007965;28;20029;-70
2021/04/18 05:05:56;;;;;;;13.45;5.07;;;4.70;86.90;;;;;;5005288;28;20129;-69
2021/04/18 05:08:22;;;;;;;13.02;5.03;;;4.70;87.00;;;;;;4990838;28;20084;-70
2021/04/18 05:10:48;;;;;;;13.05;5.88;;;4.80;86.80;;;;;;4989999;28;20030;-70
2021/04/18 05:13:13;;;;;;;12.57;4.93;;;4.80;86.80;;;;;;4989791;28;20434;-70
2021/04/18 05:15:39;;;;;;;12.20;5.32;;;4.80;86.90;;;;;;4990974;28;20485;-70
2021/04/18 05:18:05;;;;;;;11.80;4.78;;;4.80;87.10;;;;;;4991085;28;20026;-69
2021/04/18 05:20:31;;;;;;;11.43;5.07;;;4.90;86.80;;;;;;4990140;28;20026;-68
2021/04/18 05:22:57;;;;;;;12.23;5.28;;;4.90;86.70;;;;;;4991087;28;20137;-68
2021/04/18 05:25:22;;;;;;;10.25;4.78;;;5.10;86.70;;;;;;4989071;28;20034;-70
2021/04/18 05:27:48;;;;;;;11.57;5.00;;;5.00;86.70;;;;;;4991877;28;20137;-70
2021/04/18 05:30:14;;;;;;;8.80;4.55;;;5.10;86.40;;;;;;4988845;28;20092;-71
2021/04/18 05:32:40;;;;;;;10.02;4.35;;;5.10;86.00;;;;;;4990273;28;20450;-70
2021/04/18 05:35:06;;;;;;;9.85;4.82;;;5.20;86.10;;;;;;4989625;28;20036;-70
2021/04/18 05:37:32;;;;;;;18.55;5.30;;;5.30;85.70;;;;;;4990004;28;20495;-72
2021/04/18 05:39:58;;;;;;;10.88;4.65;;;5.40;85.80;;;;;;4995304;28;20363;-71
2021/04/18 05:42:23;;;;;;;12.90;5.10;;;5.50;85.80;;;;;;5007667;28;20041;-70
2021/04/18 05:44:49;;;;;;;9.85;4.90;;;5.60;85.70;;;;;;5006749;28;20548;-70
2021/04/18 05:47:15;;;;;;;11.20;4.65;;;5.60;85.40;;;;;;5006198;28;20113;-70
2021/04/18 05:49:40;;;;;;;12.10;5.10;;;5.80;84.90;;;;;;5004116;28;20069;-70
2021/04/18 05:52:07;;;;;;;14.45;4.82;;;5.90;84.60;;;;;;5004659;28;20474;-70
2021/04/18 05:54:33;;;;;;;12.68;5.18;;;6.00;84.70;;;;;;5001033;28;20034;-70
2021/04/18 05:56:58;;;;;;;11.27;4.40;;;6.10;84.40;;;;;;4991283;28;20056;-70
2021/04/18 05:59:24;;;;;;;12.38;4.40;;;6.20;83.70;;;;;;4989394;28;20495;-69
2021/04/18 06:01:49;;;;;;;11.05;4.60;;;6.30;83.30;;;;;;4989571;28;22122;-71
2021/04/18 06:04:15;;;;;;;11.75;4.50;;;6.40;83.00;;;;;;4998436;28;20407;-69
2021/04/18 06:06:41;;;;;;;11.43;4.60;;;6.60;82.80;;;;;;5000567;28;20044;-71
2021/04/18 06:09:06;;;;;;;12.07;4.55;;;6.60;82.20;;;;;;5001618;28;20396;-70
2021/04/18 06:11:32;;;;;;;11.00;4.30;;;6.70;81.50;;;;;;5003388;28;20037;-70
2021/04/18 06:13:57;;;;;;;14.02;3.95;;;6.80;81.40;;;;;;5004826;28;20473;-71
2021/04/18 06:16:23;;;;;;;9.00;3.72;;;6.90;81.00;;;;;;5006508;28;20026;-70
2021/04/18 06:18:49;;;;;;;9.90;3.97;;;6.80;80.50;;;;;;5002121;28;20056;-71
2021/04/18 06:21:15;;;;;;;11.48;4.10;;;6.80;80.70;;;;;;5004001;28;20798;-70
2021/04/18 06:23:41;;;;;;;10.30;4.55;;;6.80;80.60;;;;;;5004438;28;20838;-70
2021/04/18 06:26:06;;;;;;;10.70;4.13;;;6.80;80.50;;;;;;5008146;28;20041;-71
2021/04/18 06:28:32;;;;;;;13.82;4.55;;;7.00;80.30;;;;;;5006232;28;20109;-69
2021/04/18 06:30:57;;;;;;;10.85;4.30;;;7.20;79.70;;;;;;5003155;28;20029;-71
2021/04/18 06:33:23;;;;;;;13.40;4.22;;;7.50;79.90;;;;;;5002792;28;20309;-69
2021/04/18 06:35:49;;;;;;;10.10;4.00;;;7.70;78.50;;;;;;5006190;28;20037;-69
2021/04/18 06:38:14;;;;;;;10.05;3.88;;;7.80;77.40;;;;;;5004633;28;20036;-70
2021/04/18 06:40:41;;;;;;;10.18;4.05;;;7.90;77.50;;;;;;5005053;28;20026;-69
2021/04/18 06:43:09;;;;;;;13.82;3.80;;;8.10;76.80;;;;;;5002504;28;20199;-70
2021/04/18 06:45:35;;;;;;;12.13;4.15;;;8.20;76.50;;;;;;5002749;28;20022;-70
2021/04/18 06:48:01;;;;;;;9.38;3.65;;;8.40;77.00;;;;;;4999670;28;20084;-69
2021/04/18 06:50:27;;;;;;;11.20;3.83;;;8.40;76.30;;;;;;5004170;28;20046;-70
2021/04/18 06:52:53;;;;;;;11.20;4.03;;;8.50;76.10;;;;;;5003355;28;20037;-69
2021/04/18 06:55:19;;;;;;;8.55;3.35;;;8.50;75.30;;;;;;5006473;28;20030;-70
2021/04/18 06:57:45;;;;;;;9.13;3.70;;;8.70;75.80;;;;;;5004103;28;20057;-68
2021/04/18 07:00:12;;;;;;;13.63;3.40;;;8.60;74.90;;;;;;5001303;28;20058;-69
2021/04/18 07:02:39;;;;;;;9.20;3.50;;;8.70;75.00;;;;;;4987177;28;20163;-70
2021/04/18 07:05:15;;;;;;;12.50;3.72;;;9.00;75.10;;;;;;4987244;28;20033;-70
2021/04/18 07:07:42;;;;;;;10.80;3.42;;;9.10;74.10;;;;;;4996638;28;20558;-71
2021/04/18 07:10:13;;;;;;;9.85;3.67;;;9.50;73.00;;;;;;5003238;28;20478;-71
2021/04/18 07:12:40;;;;;;;9.77;3.27;;;9.60;71.30;;;;;;5006413;28;20069;-71
2021/04/18 07:15:06;;;;;;;11.88;4.10;;;9.70;71.60;;;;;;5004445;28;20273;-71
2021/04/18 07:17:32;;;;;;;12.60;3.80;;;9.70;70.80;;;;;;5002476;28;20536;-70
2021/04/18 07:20:15;;;;;;;7.57;3.38;;;9.60;71.70;;;;;;5003294;28;20033;-71
2021/04/18 07:22:41;;;;;;;7.03;3.65;;;9.60;71.30;;;;;;5005234;28;20028;-69
2021/04/18 07:25:08;;;;;;;11.60;3.92;;;9.70;70.60;;;;;;5003527;28;20026;-71
2021/04/18 07:27:51;;;;;;;9.40;4.20;;;9.60;70.30;;;;;;5006011;28;20057;-71
2021/04/18 07:30:19;;;;;;;9.18;3.53;;;10.10;70.20;;;;;;5002460;28;20061;-70
2021/04/18 07:32:45;;;;;;;14.13;4.40;;;10.20;69.80;;;;;;5004574;28;20053;-70
2021/04/18 07:35:39;;;;;;;15.35;4.32;;;10.70;69.50;;;;;;5004001;28;20054;-71
2021/04/18 07:38:24;;;;;;;9.48;3.60;;;11.10;68.10;;;;;;4989580;28;20029;-70
2021/04/18 07:40:53;;;;;;;9.77;3.80;;;11.20;67.90;;;;;;4983824;28;20088;-72
2021/04/18 07:43:18;;;;;;;9.15;3.35;;;11.30;64.90;;;;;;4986534;28;20679;-71
2021/04/18 07:45:47;;;;;;;10.07;3.60;;;11.30;65.80;;;;;;4989442;28;20056;-70
2021/04/18 07:48:16;;;;;;;11.68;3.88;;;11.50;65.40;;;;;;4991097;28;20034;-70
2021/04/18 07:50:45;;;;;;;11.55;3.58;;;11.70;65.00;;;;;;4990620;28;20033;-71
2021/04/18 07:53:14;;;;;;;6.85;3.50;;;11.90;63.40;;;;;;4991100;28;20022;-71
2021/04/18 07:55:40;;;;;;;10.00;3.17;;;11.50;63.90;;;;;;4991273;28;20388;-71
2021/04/18 07:58:05;;;;;;;9.07;2.95;;;11.90;63.30;;;;;;4990441;28;20099;-71
2021/04/18 08:00:32;;;;;;;10.95;3.20;;;11.80;61.90;;;;;;4987897;28;20038;-70
2021/04/18 08:02:58;;;;;;;11.27;3.70;;;12.20;62.80;;;;;;4973992;28;20041;-70
2021/04/18 08:05:25;;;;;;;10.52;3.45;;;12.30;61.40;;;;;;4975740;28;20418;-70
2021/04/18 08:08:09;;;;;;;6.70;3.55;;;12.30;62.20;;;;;;4981336;28;20041;-71
2021/04/18 08:10:45;;;;;;;9.35;3.47;;;12.60;60.60;;;;;;4989449;28;20175;-71
2021/04/18 08:13:19;;;;;;;6.78;3.47;;;12.80;59.60;;;;;;4964679;28;20056;-71
2021/04/18 08:15:54;;;;;;;7.85;3.42;;;13.00;59.50;;;;;;4990438;28;20033;-70
2021/04/18 08:18:42;;;;;;;10.43;3.47;;;12.90;59.00;;;;;;4991250;28;20037;-71
2021/04/18 08:21:31;;;;;;;9.05;3.83;;;12.70;57.90;;;;;;4994969;28;20163;-72
2021/04/18 08:23:59;;;;;;;7.47;3.08;;;13.70;57.50;;;;;;5005717;28;20029;-71
2021/04/18 08:26:27;;;;;;;7.20;2.92;;;14.20;56.60;;;;;;5005940;28;20018;-71
2021/04/18 08:28:53;;;;;;;14.30;3.90;;;13.70;55.90;;;;;;5004143;28;20745;-71
2021/04/18 08:31:22;;;;;;;7.95;3.53;;;14.30;54.40;;;;;;5006080;28;20036;-71
2021/04/18 08:33:53;;;;;;;8.23;4.05;;;14.00;55.20;;;;;;5008375;28;20029;-72
2021/04/18 08:36:26;;;;;;;9.90;3.20;;;14.30;53.20;;;;;;5002441;28;20041;-72
2021/04/18 08:39:04;;;;;;;8.18;3.30;;;14.40;54.60;;;;;;5007059;28;20084;-71
2021/04/18 08:41:45;;;;;;;8.05;3.33;;;14.40;54.10;;;;;;5007837;28;20033;-72
2021/04/18 08:44:15;;;;;;;;;;;14.60;52.10;;;;;;5004401;28;20141;-71
2021/04/18 08:46:42;;;;;;;9.60;3.67;;;14.50;54.50;;;;;;4992216;28;19909;-72
2021/04/18 08:49:09;;;;;;;10.43;3.78;;;14.20;53.30;;;;;;5011703;28;20042;-72
2021/04/18 08:51:35;;;;;;;7.80;3.72;;;13.80;54.00;;;;;;5009806;28;20568;-71
2021/04/18 08:54:01;;;;;;;7.82;3.63;;;13.90;55.20;;;;;;5003428;28;20033;-71
2021/04/18 08:56:46;;;;;;;8.18;3.20;;;14.50;54.10;;;;;;5008321;28;20336;-72
2021/04/18 08:59:14;;;;;;;9.60;3.65;;;14.60;51.30;;;;;;5006891;28;20073;-71
2021/04/18 09:01:52;;;;;;;10.90;3.78;;;15.10;51.70;;;;;;4991447;28;20457;-71
2021/04/18 09:04:20;;;;;;;6.78;3.50;;;15.30;50.50;;;;;;5007303;28;20033;-72
2021/04/18 09:06:47;;;;;;;9.88;3.80;;;15.10;50.60;;;;;;5005393;28;20216;-71
2021/04/18 09:09:13;;;;;;;9.38;3.58;;;15.40;50.30;;;;;;5003249;28;20026;-71
2021/04/18 09:11:46;;;;;;;8.70;3.30;;;15.60;50.30;;;;;;5003674;28;20018;-71
2021/04/18 09:14:24;;;;;;;10.50;3.80;;;15.30;48.30;;;;;;5005010;28;20025;-72
2021/04/18 09:16:50;;;;;;;8.93;3.50;;;15.60;49.20;;;;;;5009520;28;20100;-70
2021/04/18 09:19:28;;;;;;;8.57;3.45;;;15.60;50.10;;;;;;5008198;28;20360;-71
2021/04/18 09:22:06;;;;;;;6.55;3.53;;;15.40;50.70;;;;;;5008957;28;20022;-71
2021/04/18 09:24:37;;;;;;;7.63;3.55;;;15.20;49.80;;;;;;5002552;28;20038;-71
2021/04/18 09:27:13;;;;;;;;;;;15.10;50.80;;;;;;5007309;28;20022;-71
2021/04/18 09:29:45;;;;;;;7.13;3.60;;;15.90;50.60;;;;;;5006222;28;19918;-71
2021/04/18 09:32:14;;;;;;;10.57;4.13;;;15.70;50.70;;;;;;5005240;28;20033;-69
2021/04/18 09:34:41;;;;;;;12.82;3.97;;;15.10;52.30;;;;;;5000298;28;20107;-72
2021/04/18 09:37:12;;;;;;;10.75;3.90;;;15.50;50.00;;;;;;5006148;28;20021;-72
2021/04/18 09:39:39;;;;;;;7.93;3.63;;;16.00;51.10;;;;;;5005746;28;20038;-69
2021/04/18 09:42:07;;;;;;;8.02;3.15;;;16.20;49.40;;;;;;5009029;28;20109;-72
2021/04/18 09:44:46;;;;;;;7.65;3.42;;;16.30;49.80;;;;;;4992195;28;20040;-72
2021/04/18 09:47:19;;;;;;;8.52;3.65;;;16.50;47.60;;;;;;4998843;28;20031;-71
2021/04/18 09:49:51;;;;;;;7.00;3.40;;;17.20;50.60;;;;;;5005969;28;20021;-72
2021/04/18 09:52:43;;;;;;;10.38;3.90;;;17.50;47.90;;;;;;5006848;28;20092;-72
2021/04/18 09:55:15;;;;;;;8.27;3.58;;;17.20;46.70;;;;;;4978147;28;20506;-72
2021/04/18 09:57:52;;;;;;;7.75;3.95;;;16.90;47.70;;;;;;5002310;28;20028;-71
2021/04/18 10:00:29;;;;;;;8.30;3.53;;;16.80;48.60;;;;;;5002698;28;20037;-71
2021/04/18 10:03:09;;;;;;;8.50;3.80;;;16.90;48.40;;;;;;5005588;28;20653;-71
2021/04/18 10:05:56;;;;;;;9.23;3.50;;;17.10;48.20;;;;;;5003206;28;20591;-69
2021/04/18 10:08:22;;;;;;;9.25;4.25;;;17.10;47.20;;;;;;5003006;28;20033;-70
2021/04/18 10:11:15;;;;;;;9.23;4.10;;;17.10;48.30;;;;;;5007283;28;20030;-71
2021/04/18 10:13:54;;;;;;;8.95;3.67;;;17.20;48.60;;;;;;5005496;28;20053;-70
2021/04/18 10:16:40;;;;;;;9.10;3.97;;;17.40;48.50;;;;;;5004405;28;20140;-71
2021/04/18 10:19:21;;;;;;;8.20;3.78;;;17.40;48.20;;;;;;4991315;28;20034;-72
2021/04/18 10:22:07;;;;;;;8.52;3.60;;;17.20;48.80;;;;;;4998119;28;20026;-70
2021/04/18 10:24:50;;;;;;;9.82;4.22;;;17.00;48.30;;;;;;5002880;28;20038;-72
2021/04/18 10:27:18;;;;;;;8.13;3.92;;;17.20;49.50;;;;;;5008035;28;20510;-71
2021/04/18 10:29:45;;;;;;;9.60;4.07;;;17.10;47.80;;;;;;5002755;28;20475;-71
2021/04/18 10:32:10;;;;;;;9.35;4.10;;;17.70;48.00;;;;;;5004773;28;20021;-70
2021/04/18 10:34:37;;;;;;;8.77;4.10;;;18.00;48.30;;;;;;5005340;28;20103;-71
2021/04/18 10:37:04;;;;;;;10.88;3.85;;;17.90;47.70;;;;;;5008085;28;20033;-71
2021/04/18 10:39:30;;;;;;;8.82;3.80;;;17.50;49.00;;;;;;5002843;28;20163;-70
2021/04/18 10:41:56;;;;;;;7.43;3.95;;;18.10;49.00;;;;;;5007069;28;20042;-71
2021/04/18 10:44:21;;;;;;;10.75;3.85;;;18.10;49.60;;;;;;5005479;28;20033;-71
2021/04/18 10:46:56;;;;;;;27.55;18.10;;;18.50;48.90;;;;;;5002218;28;20109;-71
2021/04/18 10:49:22;;;;;;;9.70;4.30;;;19.00;48.30;;;;;;5004014;28;20498;-71
2021/04/18 10:51:48;;;;;;;9.13;4.30;;;18.50;47.20;;;;;;5002921;28;20087;-70
2021/04/18 10:54:16;;;;;;;8.00;3.72;;;18.70;48.20;;;;;;5005504;28;20033;-71
2021/04/18 10:56:42;;;;;;;10.52;5.50;;;18.00;49.00;;;;;;5000927;28;20022;-71
2021/04/18 10:59:08;;;;;;;9.55;4.70;;;17.70;50.00;;;;;;4997647;28;20431;-71
2021/04/18 11:01:33;;;;;;;8.73;4.47;;;18.00;50.10;;;;;;5005919;28;20028;-71
2021/04/18 11:03:59;;;;;;;8.13;4.05;;;18.30;50.10;;;;;;5004445;28;20033;-71
2021/04/18 11:06:24;;;;;;;7.60;4.43;;;18.00;51.00;;;;;;5004059;28;20030;-71
2021/04/18 11:08:50;;;;;;;9.25;4.07;;;17.50;51.40;;;;;;5004757;28;20117;-72
2021/04/18 11:11:16;;;;;;;11.30;5.15;;;17.50;51.50;;;;;;5004585;28;20038;-71
2021/04/18 11:13:41;;;;;;;7.68;4.80;;;17.20;51.90;;;;;;5001971;28;20034;-71
2021/04/18 11:16:07;;;;;;;7.88;4.43;;;17.30;53.00;;;;;;5002774;28;20022;-71
2021/04/18 11:18:33;;;;;;;9.25;4.45;;;17.30;52.50;;;;;;4999046;28;20030;-70
2021/04/18 11:20:59;;;;;;;9.88;5.03;;;17.40;52.30;;;;;;5002489;28;20030;-71
2021/04/18 11:23:25;;;;;;;13.15;4.97;;;16.90;53.10;;;;;;5006281;28;20030;-72
2021/04/18 11:25:51;;;;;;;12.70;5.30;;;17.30;53.50;;;;;;5007505;28;20410;-70
2021/04/18 11:28:16;;;;;;;11.65;4.93;;;17.20;52.30;;;;;;4998333;28;20797;-70
2021/04/18 11:30:42;;;;;;;9.02;5.47;;;17.90;51.60;;;;;;5005503;28;20052;-71
2021/04/18 11:33:08;;;;;;;9.73;4.78;;;18.00;51.10;;;;;;5005584;28;20452;-72
2021/04/18 11:35:33;;;;;;;10.00;5.05;;;18.20;50.90;;;;;;5005694;28;20022;-71
2021/04/18 11:38:00;;;;;;;8.80;5.03;;;18.30;50.60;;;;;;5005342;28;20102;-72
2021/04/18 11:40:26;;;;;;;9.75;5.20;;;18.10;50.80;;;;;;5005809;28;20030;-71
2021/04/18 11:42:53;;;;;;;12.13;4.57;;;18.50;49.00;;;;;;5001038;28;20143;-71
2021/04/18 11:45:20;;;;;;;10.90;4.75;;;18.80;49.50;;;;;;5003569;28;20357;-72
2021/04/18 11:47:46;;;;;;;7.85;4.50;;;19.10;49.30;;;;;;4984731;28;20233;-72
2021/04/18 11:50:13;;;;;;;11.00;4.65;;;18.70;48.40;;;;;;5003993;28;20100;-71
2021/04/18 11:52:38;;;;;;;7.55;4.50;;;18.90;47.20;;;;;;5003804;28;20029;-72
2021/04/18 11:55:08;;;;;;;9.85;6.65;;;19.10;49.20;;;;;;5005954;28;20100;-72
2021/04/18 11:57:34;;;;;;;8.63;4.70;;;19.50;47.90;;;;;;5000936;28;20101;-71
2021/04/18 12:00:00;;;;;;;8.68;4.25;;;19.80;45.90;;;;;;5001793;28;20033;-72
2021/04/18 12:02:25;;;;;;;8.18;4.50;;;20.20;46.40;;;;;;4987944;28;20053;-72
2021/04/18 12:04:51;;;;;;;8.15;4.38;;;20.60;44.00;;;;;;5002013;28;20117;-71
2021/04/18 12:07:17;;;;;;;9.63;4.47;;;20.50;43.20;;;;;;5002023;28;20061;-69
2021/04/18 12:09:42;;;;;;;9.85;5.65;;;20.60;43.80;;;;;;4999951;28;20490;-72
2021/04/18 12:12:08;;;;;;;8.90;5.00;;;20.00;44.30;;;;;;4999676;28;20382;-71
2021/04/18 12:14:34;;;;;;;8.65;4.57;;;19.90;47.10;;;;;;5000497;28;20029;-70
2021/04/18 12:17:00;;;;;;;9.88;5.43;;;20.30;44.10;;;;;;5001209;28;20030;-72
2021/04/18 12:19:25;;;;;;;8.48;4.40;;;20.20;44.40;;;;;;5002526;28;20038;-72
2021/04/18 12:21:51;;;;;;;9.55;4.07;;;20.40;45.70;;;;;;5000855;28;20057;-71
2021/04/18 12:24:17;;;;;;;8.25;4.22;;;19.20;45.50;;;;;;5001822;28;20121;-72
2021/04/18 12:26:42;;;;;;;7.97;4.15;;;19.30;45.70;;;;;;5000249;28;20125;-71
2021/04/18 12:29:08;;;;;;;8.07;4.03;;;18.80;47.80;;;;;;5002799;28;20042;-72
2021/04/18 12:31:36;;;;;;;9.73;4.30;;;18.50;47.50;;;;;;5008001;28;20030;-71
2021/04/18 12:34:03;;;;;;;8.85;4.60;;;18.80;47.10;;;;;;5004831;28;20032;-71
2021/04/18 12:36:29;;;;;;;11.57;4.72;;;18.60;48.60;;;;;;5005522;28;20034;-72
2021/04/18 12:38:54;;;;;;;11.07;4.47;;;18.50;48.60;;;;;;5005421;28;20470;-70
2021/04/18 12:41:20;;;;;;;11.25;4.70;;;19.20;47.90;;;;;;5005529;28;20030;-71
2021/04/18 12:43:45;;;;;;;8.35;4.03;;;20.00;45.00;;;;;;4985245;28;20574;-72
2021/04/18 12:46:11;;;;;;;9.23;4.63;;;19.90;44.90;;;;;;5002963;28;20373;-72
2021/04/18 12:48:37;;;;;;;12.48;4.10;;;20.40;45.70;;;;;;5000101;28;20459;-71
2021/04/18 12:51:03;;;;;;;10.95;4.50;;;20.80;44.10;;;;;;4979356;28;20026;-72